sensor_id;sensor_type;location;lat;lon;timestamp;temperature;humidity
42365;DHT22;28498;54.400;18.566;2022-07-26T00:01:26;21.60;98.80
42365;DHT22;28498;54.400;18.566;2022-07-26T00:03:58;21.70;99.90
42365;DHT22;28498;54.400;18.566;2022-07-26T00:06:25;21.60;99.90
42365;DHT22;28498;54.400;18.566;2022-07-26T00:08:53;21.50;99.90
42365;DHT22;28498;54.400;18.566;2022-07-26T00:11:20;21.60;99.90
42365;DHT22;28498;54.400;18.566;2022-07-26T00:13:47;21.50;99.90
42365;DHT22;28498;54.400;18.566;2022-07-26T00:16:14;21.50;99.90
42365;DHT22;28498;54.400;18.566;2022-07-26T00:18:41;21.50;99.90
42365;DHT22;28498;54.400;18.566;2022-07-26T00:21:08;21.40;99.90
42365;DHT22;28498;54.400;18.566;2022-07-26T00:23:37;21.40;99.90
42365;DHT22;28498;54.400;18.566;2022-07-26T00:26:04;21.40;99.90
42365;DHT22;28498;54.400;18.566;2022-07-26T00:28:31;21.50;99.90
42365;DHT22;28498;54.400;18.566;2022-07-26T00:30:58;21.50;99.90
42365;DHT22;28498;54.400;18.566;2022-07-26T00:33:25;21.50;99.90
42365;DHT22;28498;54.400;18.566;2022-07-26T00:35:52;21.60;99.90
42365;DHT22;28498;54.400;18.566;2022-07-26T00:38:19;21.50;99.90
42365;DHT22;28498;54.400;18.566;2022-07-26T00:40:46;21.50;99.90
42365;DHT22;28498;54.400;18.566;2022-07-26T00:43:13;21.60;99.90
42365;DHT22;28498;54.400;18.566;2022-07-26T00:45:40;21.60;99.90
42365;DHT22;28498;54.400;18.566;2022-07-26T00:48:07;21.50;99.90
42365;DHT22;28498;54.400;18.566;2022-07-26T00:50:36;21.60;99.90
42365;DHT22;28498;54.400;18.566;2022-07-26T00:53:03;21.60;99.90
42365;DHT22;28498;54.400;18.566;2022-07-26T00:55:30;21.60;99.90
42365;DHT22;28498;54.400;18.566;2022-07-26T00:57:57;21.50;99.90
42365;DHT22;28498;54.400;18.566;2022-07-26T01:00:27;21.50;99.90
42365;DHT22;28498;54.400;18.566;2022-07-26T01:02:55;21.50;99.90
42365;DHT22;28498;54.400;18.566;2022-07-26T01:05:22;21.50;99.90
42365;DHT22;28498;54.400;18.566;2022-07-26T01:07:50;21.50;99.90
42365;DHT22;28498;54.400;18.566;2022-07-26T01:10:19;21.40;99.90
42365;DHT22;28498;54.400;18.566;2022-07-26T01:12:46;21.40;99.90
42365;DHT22;28498;54.400;18.566;2022-07-26T01:15:14;21.40;1.00
42365;DHT22;28498;54.400;18.566;2022-07-26T01:17:41;21.30;1.00
42365;DHT22;28498;54.400;18.566;2022-07-26T01:20:11;21.30;1.00
42365;DHT22;28498;54.400;18.566;2022-07-26T01:22:38;21.30;1.00
42365;DHT22;28498;54.400;18.566;2022-07-26T01:25:06;21.20;37.20
42365;DHT22;28498;54.400;18.566;2022-07-26T01:27:33;21.20;70.20
42365;DHT22;28498;54.400;18.566;2022-07-26T01:30:09;21.20;99.90
42365;DHT22;28498;54.400;18.566;2022-07-26T01:32:37;21.20;99.90
42365;DHT22;28498;54.400;18.566;2022-07-26T01:35:05;21.20;99.90
42365;DHT22;28498;54.400;18.566;2022-07-26T01:37:32;21.20;99.90
42365;DHT22;28498;54.400;18.566;2022-07-26T01:39:59;21.10;99.90
42365;DHT22;28498;54.400;18.566;2022-07-26T01:42:26;21.10;99.90
42365;DHT22;28498;54.400;18.566;2022-07-26T01:44:53;21.10;99.90
42365;DHT22;28498;54.400;18.566;2022-07-26T01:47:20;21.00;99.90
42365;DHT22;28498;54.400;18.566;2022-07-26T01:49:47;21.00;99.90
42365;DHT22;28498;54.400;18.566;2022-07-26T01:52:14;21.00;99.90
42365;DHT22;28498;54.400;18.566;2022-07-26T01:54:41;20.90;99.90
42365;DHT22;28498;54.400;18.566;2022-07-26T01:57:08;21.00;99.90
42365;DHT22;28498;54.400;18.566;2022-07-26T01:59:35;21.00;99.90
42365;DHT22;28498;54.400;18.566;2022-07-26T02:02:02;21.00;99.90
42365;DHT22;28498;54.400;18.566;2022-07-26T02:04:29;21.10;99.90
42365;DHT22;28498;54.400;18.566;2022-07-26T02:07:14;21.10;99.90
42365;DHT22;28498;54.400;18.566;2022-07-26T02:09:41;21.10;99.90
42365;DHT22;28498;54.400;18.566;2022-07-26T02:12:09;21.00;99.90
42365;DHT22;28498;54.400;18.566;2022-07-26T02:14:36;21.00;99.90
42365;DHT22;28498;54.400;18.566;2022-07-26T02:17:03;21.00;99.90
42365;DHT22;28498;54.400;18.566;2022-07-26T02:19:30;21.00;99.90
42365;DHT22;28498;54.400;18.566;2022-07-26T02:21:58;20.90;99.90
42365;DHT22;28498;54.400;18.566;2022-07-26T02:24:26;21.00;99.90
42365;DHT22;28498;54.400;18.566;2022-07-26T02:26:56;20.90;99.90
42365;DHT22;28498;54.400;18.566;2022-07-26T02:29:23;20.90;25.00
42365;DHT22;28498;54.400;18.566;2022-07-26T02:31:51;20.90;92.10
42365;DHT22;28498;54.400;18.566;2022-07-26T02:34:18;20.90;1.00
42365;DHT22;28498;54.400;18.566;2022-07-26T02:36:46;20.90;70.30
42365;DHT22;28498;54.400;18.566;2022-07-26T02:39:13;20.90;38.90
42365;DHT22;28498;54.400;18.566;2022-07-26T02:41:40;20.90;24.70
42365;DHT22;28498;54.400;18.566;2022-07-26T02:44:07;20.80;99.90
42365;DHT22;28498;54.400;18.566;2022-07-26T02:46:35;20.90;99.90
42365;DHT22;28498;54.400;18.566;2022-07-26T02:49:03;20.70;62.30
42365;DHT22;28498;54.400;18.566;2022-07-26T02:51:30;20.40;1.00
42365;DHT22;28498;54.400;18.566;2022-07-26T02:53:57;20.00;45.70
42365;DHT22;28498;54.400;18.566;2022-07-26T02:56:24;19.50;72.80
42365;DHT22;28498;54.400;18.566;2022-07-26T02:58:51;18.90;99.90
42365;DHT22;28498;54.400;18.566;2022-07-26T03:01:18;18.60;99.90
42365;DHT22;28498;54.400;18.566;2022-07-26T03:03:45;18.40;99.90
42365;DHT22;28498;54.400;18.566;2022-07-26T03:06:17;18.30;99.90
42365;DHT22;28498;54.400;18.566;2022-07-26T03:08:44;18.10;99.90
42365;DHT22;28498;54.400;18.566;2022-07-26T03:11:11;18.10;99.90
42365;DHT22;28498;54.400;18.566;2022-07-26T03:13:38;18.00;99.90
42365;DHT22;28498;54.400;18.566;2022-07-26T03:16:06;18.00;99.90
42365;DHT22;28498;54.400;18.566;2022-07-26T03:18:33;18.00;99.90
42365;DHT22;28498;54.400;18.566;2022-07-26T03:21:01;17.80;99.90
42365;DHT22;28498;54.400;18.566;2022-07-26T03:23:28;17.90;99.90
42365;DHT22;28498;54.400;18.566;2022-07-26T03:26:00;17.90;99.90
42365;DHT22;28498;54.400;18.566;2022-07-26T03:28:31;18.00;99.90
42365;DHT22;28498;54.400;18.566;2022-07-26T03:30:59;18.00;99.90
42365;DHT22;28498;54.400;18.566;2022-07-26T03:33:27;18.10;99.90
42365;DHT22;28498;54.400;18.566;2022-07-26T03:35:54;18.10;99.90
42365;DHT22;28498;54.400;18.566;2022-07-26T03:38:22;18.10;99.90
42365;DHT22;28498;54.400;18.566;2022-07-26T03:40:49;18.00;99.90
42365;DHT22;28498;54.400;18.566;2022-07-26T03:43:16;18.00;99.90
42365;DHT22;28498;54.400;18.566;2022-07-26T03:45:48;18.10;99.90
42365;DHT22;28498;54.400;18.566;2022-07-26T03:48:15;18.10;99.90
42365;DHT22;28498;54.400;18.566;2022-07-26T03:50:42;18.00;99.90
42365;DHT22;28498;54.400;18.566;2022-07-26T03:53:09;18.00;99.90
42365;DHT22;28498;54.400;18.566;2022-07-26T03:55:36;17.90;99.90
42365;DHT22;28498;54.400;18.566;2022-07-26T03:58:22;18.10;99.90
42365;DHT22;28498;54.400;18.566;2022-07-26T04:00:48;18.00;99.90
42365;DHT22;28498;54.400;18.566;2022-07-26T04:03:15;18.00;99.90
42365;DHT22;28498;54.400;18.566;2022-07-26T04:05:42;17.90;99.90
42365;DHT22;28498;54.400;18.566;2022-07-26T04:08:15;17.80;99.90
42365;DHT22;28498;54.400;18.566;2022-07-26T04:10:46;17.80;99.90
42365;DHT22;28498;54.400;18.566;2022-07-26T04:13:13;17.80;99.90
42365;DHT22;28498;54.400;18.566;2022-07-26T04:15:40;17.80;99.90
42365;DHT22;28498;54.400;18.566;2022-07-26T04:18:07;17.70;99.90
42365;DHT22;28498;54.400;18.566;2022-07-26T04:20:34;17.90;99.90
42365;DHT22;28498;54.400;18.566;2022-07-26T04:23:01;18.00;99.90
42365;DHT22;28498;54.400;18.566;2022-07-26T04:25:28;18.10;99.90
42365;DHT22;28498;54.400;18.566;2022-07-26T04:28:07;18.10;99.90
42365;DHT22;28498;54.400;18.566;2022-07-26T04:30:35;18.20;99.90
42365;DHT22;28498;54.400;18.566;2022-07-26T04:33:02;18.20;99.90
42365;DHT22;28498;54.400;18.566;2022-07-26T04:35:29;18.30;99.90
42365;DHT22;28498;54.400;18.566;2022-07-26T04:37:56;18.20;99.90
42365;DHT22;28498;54.400;18.566;2022-07-26T04:40:23;18.00;99.90
42365;DHT22;28498;54.400;18.566;2022-07-26T04:42:51;18.00;99.90
42365;DHT22;28498;54.400;18.566;2022-07-26T04:45:18;17.90;99.90
42365;DHT22;28498;54.400;18.566;2022-07-26T04:47:47;18.10;99.90
42365;DHT22;28498;54.400;18.566;2022-07-26T04:50:19;18.10;99.90
42365;DHT22;28498;54.400;18.566;2022-07-26T04:52:46;18.10;99.90
42365;DHT22;28498;54.400;18.566;2022-07-26T04:55:14;18.10;99.90
42365;DHT22;28498;54.400;18.566;2022-07-26T04:57:41;18.20;99.90
42365;DHT22;28498;54.400;18.566;2022-07-26T05:00:11;18.30;99.90
42365;DHT22;28498;54.400;18.566;2022-07-26T05:02:55;18.30;99.90
42365;DHT22;28498;54.400;18.566;2022-07-26T05:05:23;18.30;99.90
42365;DHT22;28498;54.400;18.566;2022-07-26T05:07:53;18.40;99.90
42365;DHT22;28498;54.400;18.566;2022-07-26T05:10:20;18.40;99.90
42365;DHT22;28498;54.400;18.566;2022-07-26T05:12:48;18.40;99.90
42365;DHT22;28498;54.400;18.566;2022-07-26T05:15:15;18.50;99.90
42365;DHT22;28498;54.400;18.566;2022-07-26T05:17:43;18.40;99.90
42365;DHT22;28498;54.400;18.566;2022-07-26T05:20:14;18.40;99.90
42365;DHT22;28498;54.400;18.566;2022-07-26T05:22:41;18.50;99.90
42365;DHT22;28498;54.400;18.566;2022-07-26T05:25:09;18.50;99.90
42365;DHT22;28498;54.400;18.566;2022-07-26T05:27:36;18.50;99.90
42365;DHT22;28498;54.400;18.566;2022-07-26T05:30:04;18.50;99.90
42365;DHT22;28498;54.400;18.566;2022-07-26T05:32:31;18.50;99.90
42365;DHT22;28498;54.400;18.566;2022-07-26T05:34:58;18.50;99.90
42365;DHT22;28498;54.400;18.566;2022-07-26T05:37:25;18.50;99.90
42365;DHT22;28498;54.400;18.566;2022-07-26T05:39:52;18.60;99.90
42365;DHT22;28498;54.400;18.566;2022-07-26T05:42:19;18.50;99.90
42365;DHT22;28498;54.400;18.566;2022-07-26T05:44:46;18.50;99.90
42365;DHT22;28498;54.400;18.566;2022-07-26T05:47:13;18.60;99.90
42365;DHT22;28498;54.400;18.566;2022-07-26T05:49:40;18.50;99.90
42365;DHT22;28498;54.400;18.566;2022-07-26T05:52:08;18.50;99.90
42365;DHT22;28498;54.400;18.566;2022-07-26T05:54:35;18.60;99.90
42365;DHT22;28498;54.400;18.566;2022-07-26T05:57:02;18.50;99.90
42365;DHT22;28498;54.400;18.566;2022-07-26T05:59:29;18.30;99.90
42365;DHT22;28498;54.400;18.566;2022-07-26T06:01:56;18.30;99.90
42365;DHT22;28498;54.400;18.566;2022-07-26T06:04:24;18.20;99.90
42365;DHT22;28498;54.400;18.566;2022-07-26T06:06:53;18.10;99.90
42365;DHT22;28498;54.400;18.566;2022-07-26T06:13:08;17.80;99.90
42365;DHT22;28498;54.400;18.566;2022-07-26T06:15:35;17.80;99.90
42365;DHT22;28498;54.400;18.566;2022-07-26T06:18:05;17.80;99.90
42365;DHT22;28498;54.400;18.566;2022-07-26T06:20:32;17.70;99.90
42365;DHT22;28498;54.400;18.566;2022-07-26T06:23:00;17.70;99.90
42365;DHT22;28498;54.400;18.566;2022-07-26T06:25:26;17.80;99.90
42365;DHT22;28498;54.400;18.566;2022-07-26T06:27:53;17.70;99.90
42365;DHT22;28498;54.400;18.566;2022-07-26T06:34:08;17.80;99.90
42365;DHT22;28498;54.400;18.566;2022-07-26T06:36:36;17.90;99.90
42365;DHT22;28498;54.400;18.566;2022-07-26T06:39:03;17.90;99.90
42365;DHT22;28498;54.400;18.566;2022-07-26T06:41:30;17.80;99.90
42365;DHT22;28498;54.400;18.566;2022-07-26T06:43:57;17.80;99.90
42365;DHT22;28498;54.400;18.566;2022-07-26T06:46:24;17.90;99.90
42365;DHT22;28498;54.400;18.566;2022-07-26T06:48:51;18.00;99.90
42365;DHT22;28498;54.400;18.566;2022-07-26T06:51:23;18.30;99.90
42365;DHT22;28498;54.400;18.566;2022-07-26T06:53:50;18.40;99.90
42365;DHT22;28498;54.400;18.566;2022-07-26T06:56:17;18.60;99.90
42365;DHT22;28498;54.400;18.566;2022-07-26T06:58:45;18.60;99.90
42365;DHT22;28498;54.400;18.566;2022-07-26T07:01:12;18.50;99.90
42365;DHT22;28498;54.400;18.566;2022-07-26T07:07:47;18.50;99.90
42365;DHT22;28498;54.400;18.566;2022-07-26T07:10:14;18.30;99.90
42365;DHT22;28498;54.400;18.566;2022-07-26T07:12:41;18.10;99.90
42365;DHT22;28498;54.400;18.566;2022-07-26T07:15:11;18.10;99.90
42365;DHT22;28498;54.400;18.566;2022-07-26T07:17:38;18.10;99.90
42365;DHT22;28498;54.400;18.566;2022-07-26T07:20:05;18.20;99.90
42365;DHT22;28498;54.400;18.566;2022-07-26T07:22:32;18.20;99.90
42365;DHT22;28498;54.400;18.566;2022-07-26T07:24:59;18.20;99.90
42365;DHT22;28498;54.400;18.566;2022-07-26T07:27:28;18.20;99.90
42365;DHT22;28498;54.400;18.566;2022-07-26T07:29:55;18.30;99.90
42365;DHT22;28498;54.400;18.566;2022-07-26T07:32:23;18.40;99.90
42365;DHT22;28498;54.400;18.566;2022-07-26T07:34:51;18.30;99.90
42365;DHT22;28498;54.400;18.566;2022-07-26T07:37:19;18.40;99.90
42365;DHT22;28498;54.400;18.566;2022-07-26T07:39:46;18.50;99.90
42365;DHT22;28498;54.400;18.566;2022-07-26T07:42:16;18.50;99.90
42365;DHT22;28498;54.400;18.566;2022-07-26T07:44:43;18.70;99.90
42365;DHT22;28498;54.400;18.566;2022-07-26T07:47:10;18.70;99.90
42365;DHT22;28498;54.400;18.566;2022-07-26T07:49:37;18.60;99.90
42365;DHT22;28498;54.400;18.566;2022-07-26T07:52:04;18.50;99.90
42365;DHT22;28498;54.400;18.566;2022-07-26T07:54:32;18.80;99.90
42365;DHT22;28498;54.400;18.566;2022-07-26T07:56:59;19.00;99.90
42365;DHT22;28498;54.400;18.566;2022-07-26T07:59:26;19.40;99.90
42365;DHT22;28498;54.400;18.566;2022-07-26T08:01:54;19.20;99.90
42365;DHT22;28498;54.400;18.566;2022-07-26T08:04:21;19.30;99.90
42365;DHT22;28498;54.400;18.566;2022-07-26T08:06:48;19.50;99.90
42365;DHT22;28498;54.400;18.566;2022-07-26T08:09:17;19.00;99.90
42365;DHT22;28498;54.400;18.566;2022-07-26T08:11:44;19.00;99.90
42365;DHT22;28498;54.400;18.566;2022-07-26T08:14:17;19.20;99.90
42365;DHT22;28498;54.400;18.566;2022-07-26T08:16:44;19.40;99.90
42365;DHT22;28498;54.400;18.566;2022-07-26T08:19:11;19.60;99.90
42365;DHT22;28498;54.400;18.566;2022-07-26T08:21:41;19.30;99.90
42365;DHT22;28498;54.400;18.566;2022-07-26T08:24:08;19.10;99.90
42365;DHT22;28498;54.400;18.566;2022-07-26T08:26:37;19.20;99.90
42365;DHT22;28498;54.400;18.566;2022-07-26T08:29:04;19.00;99.90
42365;DHT22;28498;54.400;18.566;2022-07-26T08:31:31;19.10;99.90
42365;DHT22;28498;54.400;18.566;2022-07-26T08:33:58;18.70;99.90
42365;DHT22;28498;54.400;18.566;2022-07-26T08:36:25;18.90;99.90
42365;DHT22;28498;54.400;18.566;2022-07-26T08:38:59;19.00;99.90
42365;DHT22;28498;54.400;18.566;2022-07-26T08:41:26;19.20;99.90
42365;DHT22;28498;54.400;18.566;2022-07-26T08:43:53;19.40;99.90
42365;DHT22;28498;54.400;18.566;2022-07-26T08:46:23;19.50;99.90
42365;DHT22;28498;54.400;18.566;2022-07-26T08:48:56;19.70;99.90
42365;DHT22;28498;54.400;18.566;2022-07-26T08:51:25;20.00;99.90
42365;DHT22;28498;54.400;18.566;2022-07-26T08:53:57;20.20;99.90
42365;DHT22;28498;54.400;18.566;2022-07-26T08:56:36;20.50;99.90
42365;DHT22;28498;54.400;18.566;2022-07-26T08:59:04;20.50;99.90
42365;DHT22;28498;54.400;18.566;2022-07-26T09:02:00;20.60;99.90
42365;DHT22;28498;54.400;18.566;2022-07-26T09:04:29;20.80;99.90
42365;DHT22;28498;54.400;18.566;2022-07-26T09:07:10;21.50;99.90
42365;DHT22;28498;54.400;18.566;2022-07-26T09:10:04;21.60;75.00
42365;DHT22;28498;54.400;18.566;2022-07-26T09:12:32;22.00;90.40
42365;DHT22;28498;54.400;18.566;2022-07-26T09:15:00;21.60;58.40
42365;DHT22;28498;54.400;18.566;2022-07-26T09:17:39;21.70;45.40
42365;DHT22;28498;54.400;18.566;2022-07-26T09:20:17;21.50;39.10
42365;DHT22;28498;54.400;18.566;2022-07-26T09:25:31;21.50;52.60
42365;DHT22;28498;54.400;18.566;2022-07-26T09:27:59;21.90;55.10
42365;DHT22;28498;54.400;18.566;2022-07-26T09:30:28;22.10;16.10
42365;DHT22;28498;54.400;18.566;2022-07-26T09:33:01;21.80;21.60
42365;DHT22;28498;54.400;18.566;2022-07-26T09:35:30;21.60;21.70
42365;DHT22;28498;54.400;18.566;2022-07-26T09:38:15;21.40;29.50
42365;DHT22;28498;54.400;18.566;2022-07-26T09:40:42;21.60;33.90
42365;DHT22;28498;54.400;18.566;2022-07-26T09:43:17;21.90;69.70
42365;DHT22;28498;54.400;18.566;2022-07-26T09:46:02;22.10;18.70
42365;DHT22;28498;54.400;18.566;2022-07-26T09:48:30;22.20;1.00
42365;DHT22;28498;54.400;18.566;2022-07-26T09:51:52;22.50;1.00
42365;DHT22;28498;54.400;18.566;2022-07-26T09:54:30;22.60;1.00
42365;DHT22;28498;54.400;18.566;2022-07-26T09:56:58;22.70;99.90
42365;DHT22;28498;54.400;18.566;2022-07-26T09:59:27;23.00;1.00
42365;DHT22;28498;54.400;18.566;2022-07-26T10:01:56;23.10;99.90
42365;DHT22;28498;54.400;18.566;2022-07-26T10:04:24;23.30;1.00
42365;DHT22;28498;54.400;18.566;2022-07-26T10:06:51;23.00;99.90
42365;DHT22;28498;54.400;18.566;2022-07-26T10:09:19;23.30;99.90
42365;DHT22;28498;54.400;18.566;2022-07-26T10:11:58;23.20;99.90
42365;DHT22;28498;54.400;18.566;2022-07-26T10:17:00;23.10;8.10
42365;DHT22;28498;54.400;18.566;2022-07-26T10:19:40;23.00;1.00
42365;DHT22;28498;54.400;18.566;2022-07-26T10:22:28;23.10;1.00
42365;DHT22;28498;54.400;18.566;2022-07-26T10:27:54;22.80;1.00
42365;DHT22;28498;54.400;18.566;2022-07-26T10:30:23;23.10;99.90
42365;DHT22;28498;54.400;18.566;2022-07-26T10:33:01;23.40;99.90
42365;DHT22;28498;54.400;18.566;2022-07-26T10:35:38;23.70;1.00
42365;DHT22;28498;54.400;18.566;2022-07-26T10:38:21;23.30;99.90
42365;DHT22;28498;54.400;18.566;2022-07-26T10:43:24;23.50;99.90
42365;DHT22;28498;54.400;18.566;2022-07-26T10:48:59;23.70;99.90
42365;DHT22;28498;54.400;18.566;2022-07-26T10:51:37;24.20;99.90
42365;DHT22;28498;54.400;18.566;2022-07-26T10:54:09;24.50;99.90
42365;DHT22;28498;54.400;18.566;2022-07-26T10:56:38;24.90;1.00
42365;DHT22;28498;54.400;18.566;2022-07-26T10:59:05;25.00;93.30
42365;DHT22;28498;54.400;18.566;2022-07-26T11:03:59;24.20;99.90
42365;DHT22;28498;54.400;18.566;2022-07-26T11:06:27;24.30;99.90
42365;DHT22;28498;54.400;18.566;2022-07-26T11:08:55;24.30;99.90
42365;DHT22;28498;54.400;18.566;2022-07-26T11:11:30;24.10;96.80
42365;DHT22;28498;54.400;18.566;2022-07-26T11:14:09;23.80;99.90
42365;DHT22;28498;54.400;18.566;2022-07-26T11:16:42;24.00;1.00
42365;DHT22;28498;54.400;18.566;2022-07-26T11:21:58;24.30;99.90
42365;DHT22;28498;54.400;18.566;2022-07-26T11:24:26;24.30;99.90
42365;DHT22;28498;54.400;18.566;2022-07-26T11:26:54;23.90;99.90
42365;DHT22;28498;54.400;18.566;2022-07-26T11:29:29;24.30;99.90
42365;DHT22;28498;54.400;18.566;2022-07-26T11:32:21;24.70;99.90
42365;DHT22;28498;54.400;18.566;2022-07-26T11:35:03;25.00;99.90
42365;DHT22;28498;54.400;18.566;2022-07-26T11:37:30;25.50;99.90
42365;DHT22;28498;54.400;18.566;2022-07-26T11:39:57;25.60;9.70
42365;DHT22;28498;54.400;18.566;2022-07-26T11:42:24;26.00;1.00
42365;DHT22;28498;54.400;18.566;2022-07-26T11:44:51;25.00;1.00
42365;DHT22;28498;54.400;18.566;2022-07-26T11:47:21;25.20;90.50
42365;DHT22;28498;54.400;18.566;2022-07-26T11:49:51;25.00;20.60
42365;DHT22;28498;54.400;18.566;2022-07-26T11:52:38;24.30;19.80
42365;DHT22;28498;54.400;18.566;2022-07-26T11:55:06;23.90;56.90
42365;DHT22;28498;54.400;18.566;2022-07-26T11:57:33;23.90;99.90
42365;DHT22;28498;54.400;18.566;2022-07-26T12:00:00;24.10;99.90
42365;DHT22;28498;54.400;18.566;2022-07-26T12:02:28;24.40;99.90
42365;DHT22;28498;54.400;18.566;2022-07-26T12:05:20;24.30;99.90
42365;DHT22;28498;54.400;18.566;2022-07-26T12:10:22;25.30;1.00
42365;DHT22;28498;54.400;18.566;2022-07-26T12:13:04;25.40;99.90
42365;DHT22;28498;54.400;18.566;2022-07-26T12:15:47;25.60;99.90
42365;DHT22;28498;54.400;18.566;2022-07-26T12:18:24;26.10;99.90
42365;DHT22;28498;54.400;18.566;2022-07-26T12:24:53;26.50;99.90
42365;DHT22;28498;54.400;18.566;2022-07-26T12:27:29;26.00;99.90
42365;DHT22;28498;54.400;18.566;2022-07-26T12:32:38;25.40;99.90
42365;DHT22;28498;54.400;18.566;2022-07-26T12:35:12;25.20;99.90
42365;DHT22;28498;54.400;18.566;2022-07-26T12:40:17;24.60;99.90
42365;DHT22;28498;54.400;18.566;2022-07-26T12:45:27;24.60;99.90
42365;DHT22;28498;54.400;18.566;2022-07-26T12:47:56;24.40;99.90
42365;DHT22;28498;54.400;18.566;2022-07-26T12:50:25;24.60;99.90
42365;DHT22;28498;54.400;18.566;2022-07-26T12:53:06;24.30;99.90
42365;DHT22;28498;54.400;18.566;2022-07-26T12:55:34;24.20;99.90
42365;DHT22;28498;54.400;18.566;2022-07-26T12:58:01;24.60;99.90
42365;DHT22;28498;54.400;18.566;2022-07-26T13:00:28;25.20;99.90
42365;DHT22;28498;54.400;18.566;2022-07-26T13:02:56;25.50;99.90
42365;DHT22;28498;54.400;18.566;2022-07-26T13:05:23;25.80;99.90
42365;DHT22;28498;54.400;18.566;2022-07-26T13:07:50;26.10;99.90
42365;DHT22;28498;54.400;18.566;2022-07-26T13:10:17;25.40;99.90
42365;DHT22;28498;54.400;18.566;2022-07-26T13:13:02;25.60;99.90
42365;DHT22;28498;54.400;18.566;2022-07-26T13:15:29;25.90;99.90
42365;DHT22;28498;54.400;18.566;2022-07-26T13:18:04;25.60;99.90
42365;DHT22;28498;54.400;18.566;2022-07-26T13:20:31;26.00;99.90
42365;DHT22;28498;54.400;18.566;2022-07-26T13:22:58;26.60;99.90
42365;DHT22;28498;54.400;18.566;2022-07-26T13:25:25;26.90;99.90
42365;DHT22;28498;54.400;18.566;2022-07-26T13:28:04;26.20;99.90
42365;DHT22;28498;54.400;18.566;2022-07-26T13:30:31;25.70;99.90
42365;DHT22;28498;54.400;18.566;2022-07-26T13:32:58;26.10;99.90
42365;DHT22;28498;54.400;18.566;2022-07-26T13:35:25;26.30;99.90
42365;DHT22;28498;54.400;18.566;2022-07-26T13:37:51;25.80;99.90
42365;DHT22;28498;54.400;18.566;2022-07-26T13:40:18;25.60;99.90
42365;DHT22;28498;54.400;18.566;2022-07-26T13:42:47;25.30;99.90
42365;DHT22;28498;54.400;18.566;2022-07-26T13:45:15;25.40;99.90
42365;DHT22;28498;54.400;18.566;2022-07-26T13:47:42;24.90;99.90
42365;DHT22;28498;54.400;18.566;2022-07-26T13:50:09;25.10;99.90
42365;DHT22;28498;54.400;18.566;2022-07-26T13:52:36;24.80;99.90
42365;DHT22;28498;54.400;18.566;2022-07-26T13:55:03;24.60;99.90
42365;DHT22;28498;54.400;18.566;2022-07-26T13:57:32;24.50;99.90
42365;DHT22;28498;54.400;18.566;2022-07-26T14:00:19;24.70;99.90
42365;DHT22;28498;54.400;18.566;2022-07-26T14:02:46;24.70;99.90
42365;DHT22;28498;54.400;18.566;2022-07-26T14:05:13;24.80;99.90
42365;DHT22;28498;54.400;18.566;2022-07-26T14:07:40;24.60;99.90
42365;DHT22;28498;54.400;18.566;2022-07-26T14:10:08;24.40;99.90
42365;DHT22;28498;54.400;18.566;2022-07-26T14:12:35;24.20;99.90
42365;DHT22;28498;54.400;18.566;2022-07-26T14:15:04;25.40;99.90
42365;DHT22;28498;54.400;18.566;2022-07-26T14:17:38;26.50;99.90
42365;DHT22;28498;54.400;18.566;2022-07-26T14:20:06;26.80;99.90
42365;DHT22;28498;54.400;18.566;2022-07-26T14:22:33;26.60;99.90
42365;DHT22;28498;54.400;18.566;2022-07-26T14:25:00;25.90;99.90
42365;DHT22;28498;54.400;18.566;2022-07-26T14:27:27;25.90;99.90
42365;DHT22;28498;54.400;18.566;2022-07-26T14:29:54;26.00;99.90
42365;DHT22;28498;54.400;18.566;2022-07-26T14:32:21;27.10;99.90
42365;DHT22;28498;54.400;18.566;2022-07-26T14:34:49;27.40;99.90
42365;DHT22;28498;54.400;18.566;2022-07-26T14:37:16;27.00;99.90
42365;DHT22;28498;54.400;18.566;2022-07-26T14:40:04;27.80;99.90
42365;DHT22;28498;54.400;18.566;2022-07-26T14:42:33;27.60;81.80
42365;DHT22;28498;54.400;18.566;2022-07-26T14:44:59;26.60;39.90
42365;DHT22;28498;54.400;18.566;2022-07-26T14:47:26;25.80;33.30
42365;DHT22;28498;54.400;18.566;2022-07-26T14:49:53;25.50;34.20
42365;DHT22;28498;54.400;18.566;2022-07-26T14:52:20;24.90;52.70
42365;DHT22;28498;54.400;18.566;2022-07-26T14:54:48;24.80;58.00
42365;DHT22;28498;54.400;18.566;2022-07-26T14:57:14;24.70;91.40
42365;DHT22;28498;54.400;18.566;2022-07-26T14:59:41;24.90;96.00
42365;DHT22;28498;54.400;18.566;2022-07-26T15:02:10;25.50;95.50
42365;DHT22;28498;54.400;18.566;2022-07-26T15:04:37;25.50;89.70
42365;DHT22;28498;54.400;18.566;2022-07-26T15:07:04;25.40;69.20
42365;DHT22;28498;54.400;18.566;2022-07-26T15:09:31;25.50;51.80
42365;DHT22;28498;54.400;18.566;2022-07-26T15:11:59;25.50;67.80
42365;DHT22;28498;54.400;18.566;2022-07-26T15:14:25;25.20;71.90
42365;DHT22;28498;54.400;18.566;2022-07-26T15:16:52;25.80;99.90
42365;DHT22;28498;54.400;18.566;2022-07-26T15:19:19;25.50;70.90
42365;DHT22;28498;54.400;18.566;2022-07-26T15:21:52;25.00;55.00
42365;DHT22;28498;54.400;18.566;2022-07-26T15:24:20;25.00;66.80
42365;DHT22;28498;54.400;18.566;2022-07-26T15:30:31;24.30;75.20
42365;DHT22;28498;54.400;18.566;2022-07-26T15:32:58;23.90;93.20
42365;DHT22;28498;54.400;18.566;2022-07-26T15:35:28;23.90;99.90
42365;DHT22;28498;54.400;18.566;2022-07-26T15:37:56;24.00;99.90
42365;DHT22;28498;54.400;18.566;2022-07-26T15:40:23;23.90;99.90
42365;DHT22;28498;54.400;18.566;2022-07-26T15:42:50;24.10;99.90
42365;DHT22;28498;54.400;18.566;2022-07-26T15:45:19;24.10;99.90
42365;DHT22;28498;54.400;18.566;2022-07-26T15:47:48;24.50;99.90
42365;DHT22;28498;54.400;18.566;2022-07-26T15:50:23;24.60;99.90
42365;DHT22;28498;54.400;18.566;2022-07-26T15:56:31;26.20;99.90
42365;DHT22;28498;54.400;18.566;2022-07-26T15:58:58;26.30;78.80
42365;DHT22;28498;54.400;18.566;2022-07-26T16:01:25;25.90;56.10
42365;DHT22;28498;54.400;18.566;2022-07-26T16:03:52;25.60;54.70
42365;DHT22;28498;54.400;18.566;2022-07-26T16:06:19;24.50;67.20
42365;DHT22;28498;54.400;18.566;2022-07-26T16:08:46;24.30;99.90
42365;DHT22;28498;54.400;18.566;2022-07-26T16:11:33;23.90;99.90
42365;DHT22;28498;54.400;18.566;2022-07-26T16:14:00;23.90;99.90
42365;DHT22;28498;54.400;18.566;2022-07-26T16:16:28;23.80;99.90
42365;DHT22;28498;54.400;18.566;2022-07-26T16:18:56;23.60;99.90
42365;DHT22;28498;54.400;18.566;2022-07-26T16:21:23;23.30;99.90
42365;DHT22;28498;54.400;18.566;2022-07-26T16:23:50;23.20;99.90